createdAt,value
2023-01-19T00:01:18.254Z,10.95
2023-01-19T00:03:52.844Z,9.70
2023-01-19T00:06:25.722Z,9.55
2023-01-19T00:08:58.694Z,9.35
2023-01-19T00:11:31.788Z,9.57
2023-01-19T00:14:04.849Z,8.10
2023-01-19T00:16:37.779Z,9.23
2023-01-19T00:19:11.966Z,10.35
2023-01-19T00:21:44.851Z,8.27
2023-01-19T00:24:17.681Z,10.43
2023-01-19T00:26:50.558Z,7.03
2023-01-19T00:29:23.988Z,11.02
2023-01-19T00:31:56.854Z,10.80
2023-01-19T00:34:36.743Z,8.23
2023-01-19T00:37:09.970Z,9.18
2023-01-19T00:39:43.056Z,9.60
2023-01-19T00:42:33.655Z,9.75
2023-01-19T00:45:07.555Z,11.05
2023-01-19T00:47:40.661Z,9.13
2023-01-19T00:50:17.472Z,11.55
2023-01-19T00:52:51.011Z,10.40
2023-01-19T00:55:24.705Z,10.00
2023-01-19T00:57:57.618Z,11.77
2023-01-19T01:00:30.623Z,13.25
2023-01-19T01:03:04.091Z,11.68
2023-01-19T01:05:41.508Z,9.63
2023-01-19T01:08:14.364Z,12.95
2023-01-19T01:10:47.189Z,10.45
2023-01-19T01:13:21.727Z,14.68
2023-01-19T01:15:58.178Z,9.55
2023-01-19T01:18:31.106Z,9.80
2023-01-19T01:21:06.510Z,8.05
2023-01-19T01:23:39.366Z,10.35
2023-01-19T01:26:12.220Z,8.93
2023-01-19T01:28:45.099Z,13.77
2023-01-19T01:31:18.436Z,11.85
2023-01-19T01:33:51.360Z,14.35
2023-01-19T01:36:29.019Z,12.10
2023-01-19T01:39:01.959Z,12.35
2023-01-19T01:41:35.145Z,10.90
2023-01-19T01:44:49.370Z,10.85
2023-01-19T01:47:28.895Z,11.07
2023-01-19T01:50:07.313Z,11.32
2023-01-19T01:53:06.347Z,9.40
2023-01-19T01:55:45.114Z,10.35
2023-01-19T01:58:18.060Z,12.55
2023-01-19T02:01:08.451Z,10.00
2023-01-19T02:03:41.529Z,13.77
2023-01-19T02:06:15.709Z,11.02
2023-01-19T02:09:13.722Z,11.73
2023-01-19T02:12:03.870Z,12.02
2023-01-19T02:14:37.774Z,10.07
2023-01-19T02:17:10.586Z,12.43
2023-01-19T02:19:44.763Z,10.48
2023-01-19T02:22:23.866Z,11.17
2023-01-19T02:24:58.825Z,11.68
2023-01-19T02:27:32.895Z,12.10
2023-01-19T02:30:07.188Z,12.65
2023-01-19T02:32:40.241Z,13.57
2023-01-19T02:35:14.127Z,13.68
2023-01-19T02:37:47.866Z,11.37
2023-01-19T02:40:24.893Z,11.68
2023-01-19T02:43:00.907Z,13.65
2023-01-19T02:45:34.194Z,11.93
2023-01-19T02:48:07.577Z,14.60
2023-01-19T02:50:46.084Z,12.85
2023-01-19T02:53:48.523Z,12.50
2023-01-19T02:56:40.104Z,13.25
2023-01-19T02:59:24.025Z,14.43
2023-01-19T03:02:11.662Z,11.10
2023-01-19T03:04:59.344Z,13.23
2023-01-19T03:07:43.317Z,9.82
2023-01-19T03:10:21.470Z,10.93
2023-01-19T03:13:01.891Z,11.82
2023-01-19T03:15:43.228Z,12.18
2023-01-19T03:18:20.788Z,11.52
2023-01-19T03:20:56.800Z,12.70
2023-01-19T03:23:32.959Z,10.27
2023-01-19T03:26:10.229Z,11.57
2023-01-19T03:28:46.774Z,11.82
2023-01-19T03:31:23.883Z,10.57
2023-01-19T03:34:01.397Z,9.68
2023-01-19T03:36:38.223Z,12.05
2023-01-19T03:39:13.297Z,10.40
2023-01-19T03:46:58.087Z,10.60
2023-01-19T03:49:32.632Z,9.38
2023-01-19T03:52:06.231Z,10.65
2023-01-19T03:54:39.241Z,8.27
2023-01-19T03:57:12.789Z,12.60
2023-01-19T03:59:46.901Z,11.93
2023-01-19T04:02:22.293Z,12.23
2023-01-19T04:04:55.113Z,10.02
2023-01-19T04:07:28.603Z,9.00
2023-01-19T04:10:01.504Z,11.18
2023-01-19T04:12:34.248Z,10.38
2023-01-19T04:15:09.079Z,10.50
2023-01-19T04:17:42.579Z,11.25
2023-01-19T04:20:15.443Z,12.63
2023-01-19T04:22:48.986Z,9.52
2023-01-19T04:25:22.101Z,12.05
2023-01-19T04:27:57.890Z,9.30
2023-01-19T04:30:32.141Z,12.50
2023-01-19T04:33:05.180Z,9.13
2023-01-19T04:35:38.074Z,11.90
2023-01-19T04:38:11.099Z,11.15
2023-01-19T04:40:44.031Z,10.52
2023-01-19T04:43:17.100Z,11.73
2023-01-19T04:45:51.962Z,10.45
2023-01-19T04:48:24.808Z,9.55
2023-01-19T04:50:57.783Z,9.40
2023-01-19T04:53:30.683Z,11.70
2023-01-19T04:56:03.840Z,11.00
2023-01-19T04:58:36.789Z,11.25
2023-01-19T05:01:11.106Z,11.65
2023-01-19T05:03:44.039Z,10.57
2023-01-19T05:06:16.837Z,10.18
2023-01-19T05:08:50.205Z,11.07
2023-01-19T05:11:23.035Z,10.15
2023-01-19T05:13:55.794Z,10.57
2023-01-19T05:16:30.154Z,10.23
2023-01-19T05:19:02.960Z,10.27
2023-01-19T05:21:35.898Z,11.45
2023-01-19T05:24:09.612Z,9.32
2023-01-19T05:26:42.765Z,9.68
2023-01-19T05:29:15.608Z,9.38
2023-01-19T05:31:49.786Z,11.52
2023-01-19T05:34:22.700Z,10.75
2023-01-19T05:36:55.557Z,8.43
2023-01-19T05:39:29.517Z,9.15
2023-01-19T05:42:02.463Z,8.15
2023-01-19T05:44:35.274Z,7.68
2023-01-19T05:47:09.613Z,6.57
2023-01-19T05:49:42.377Z,6.40
2023-01-19T05:52:15.485Z,7.32
2023-01-19T05:54:48.759Z,8.35
2023-01-19T05:57:21.920Z,5.97
2023-01-19T05:59:55.109Z,9.13
2023-01-19T06:02:30.071Z,7.18
2023-01-19T06:05:04.431Z,8.95
2023-01-19T06:07:37.267Z,9.32
2023-01-19T06:10:11.210Z,7.15
2023-01-19T06:12:44.034Z,6.63
2023-01-19T06:15:16.869Z,8.07
2023-01-19T06:17:51.092Z,5.10
2023-01-19T06:20:24.099Z,6.63
2023-01-19T06:22:58.036Z,5.95
2023-01-19T06:25:31.130Z,7.82
2023-01-19T06:28:04.009Z,8.20
2023-01-19T06:30:36.855Z,6.43
2023-01-19T06:33:11.236Z,7.68
2023-01-19T06:35:44.589Z,7.78
2023-01-19T06:38:19.171Z,6.75
2023-01-19T06:40:58.322Z,6.07
2023-01-19T06:43:31.946Z,6.70
2023-01-19T06:46:04.837Z,6.13
2023-01-19T06:48:39.055Z,6.82
2023-01-19T06:51:11.842Z,6.13
2023-01-19T06:53:44.617Z,5.60
2023-01-19T06:56:17.454Z,5.28
2023-01-19T06:58:53.004Z,7.63
2023-01-19T07:01:26.766Z,6.95
2023-01-19T07:04:00.959Z,6.50
2023-01-19T07:06:33.804Z,7.77
2023-01-19T07:09:07.974Z,6.28
2023-01-19T07:11:41.055Z,5.30
2023-01-19T07:14:13.926Z,7.53
2023-01-19T07:16:46.860Z,7.53
2023-01-19T07:19:20.988Z,7.32
2023-01-19T07:21:53.779Z,6.50
2023-01-19T07:24:26.917Z,7.88
2023-01-19T07:26:59.717Z,6.65
2023-01-19T07:29:32.528Z,8.07
2023-01-19T07:32:05.965Z,9.02
2023-01-19T07:34:40.095Z,9.68
2023-01-19T07:37:12.983Z,8.47
2023-01-19T07:39:45.764Z,7.30
2023-01-19T07:42:18.583Z,11.02
2023-01-19T07:44:52.462Z,12.07
2023-01-19T07:47:25.255Z,8.57
2023-01-19T07:49:59.390Z,9.38
2023-01-19T07:52:32.231Z,10.02
2023-01-19T07:55:05.438Z,8.32
2023-01-19T07:57:38.478Z,8.43
2023-01-19T08:00:14.305Z,9.00
2023-01-19T08:02:49.950Z,9.10
2023-01-19T08:07:57.553Z,8.50
2023-01-19T08:10:30.572Z,9.25
2023-01-19T08:13:03.943Z,43.90
2023-01-19T08:15:37.542Z,8.23
2023-01-19T08:18:11.591Z,9.75
2023-01-19T08:20:45.908Z,9.55
2023-01-19T08:23:20.102Z,10.63
2023-01-19T08:25:53.179Z,10.90
2023-01-19T08:28:26.413Z,8.13
2023-01-19T08:31:05.339Z,7.20
2023-01-19T08:33:47.513Z,8.40
2023-01-19T08:36:22.534Z,5.47
2023-01-19T08:41:28.153Z,8.00
2023-01-19T08:44:01.103Z,7.70
2023-01-19T08:46:34.125Z,8.18
2023-01-19T08:49:07.328Z,6.70
2023-01-19T08:51:41.511Z,9.35
2023-01-19T08:54:17.073Z,7.95
2023-01-19T08:56:51.096Z,5.70
2023-01-19T08:59:23.855Z,8.23
2023-01-19T09:01:56.734Z,7.78
2023-01-19T09:04:29.834Z,10.32
2023-01-19T09:09:39.613Z,10.57
2023-01-19T09:12:12.550Z,6.38
2023-01-19T09:14:45.609Z,9.55
2023-01-19T09:17:18.686Z,7.60
2023-01-19T09:19:51.457Z,10.23
2023-01-19T09:22:25.992Z,9.52
2023-01-19T09:24:58.828Z,9.75
2023-01-19T09:27:31.844Z,9.23
2023-01-19T09:30:11.899Z,10.27
2023-01-19T09:32:44.954Z,9.38
2023-01-19T09:35:17.893Z,9.98
2023-01-19T09:37:51.995Z,12.77
2023-01-19T09:40:24.839Z,12.55
2023-01-19T09:43:04.851Z,12.18
2023-01-19T09:45:45.946Z,12.10
2023-01-19T09:48:37.163Z,12.30
2023-01-19T09:51:15.446Z,12.93
2023-01-19T09:53:56.541Z,12.02
2023-01-19T09:56:30.858Z,12.82
2023-01-19T09:59:21.741Z,16.13
2023-01-19T10:02:11.238Z,15.82
2023-01-19T10:04:51.576Z,12.23
2023-01-19T10:07:34.233Z,18.73
2023-01-19T10:10:18.599Z,7.28
2023-01-19T10:13:17.182Z,16.98
2023-01-19T10:15:58.191Z,14.98
2023-01-19T10:18:46.099Z,14.15
2023-01-19T10:21:22.495Z,12.60
2023-01-19T10:23:59.735Z,18.40
2023-01-19T10:26:36.296Z,16.92
2023-01-19T10:29:16.750Z,16.65
2023-01-19T10:31:51.772Z,21.02
2023-01-19T10:34:24.585Z,12.55
2023-01-19T10:37:03.578Z,22.45
2023-01-19T10:39:38.714Z,18.85
2023-01-19T10:42:16.141Z,18.13
2023-01-19T10:44:50.707Z,10.05
2023-01-19T10:47:33.265Z,12.10
2023-01-19T10:50:24.620Z,23.17
2023-01-19T10:53:00.094Z,18.85
2023-01-19T10:55:37.731Z,13.93
2023-01-19T10:58:28.957Z,17.27
2023-01-19T11:01:15.368Z,12.50
2023-01-19T11:03:48.800Z,14.93
2023-01-19T11:06:25.105Z,17.23
2023-01-19T11:09:13.380Z,14.90
2023-01-19T11:11:49.329Z,17.45
2023-01-19T11:14:25.458Z,14.63
2023-01-19T11:17:00.036Z,15.18
2023-01-19T11:19:34.362Z,17.05
2023-01-19T11:22:21.452Z,17.48
2023-01-19T11:24:59.400Z,15.95
2023-01-19T11:27:35.689Z,16.67
2023-01-19T11:30:20.619Z,16.75
2023-01-19T11:32:53.519Z,14.65
2023-01-19T11:35:34.254Z,10.23
2023-01-19T11:38:18.289Z,19.73
2023-01-19T11:40:54.310Z,17.92
2023-01-19T11:43:47.401Z,17.60
2023-01-19T11:46:25.946Z,13.25
2023-01-19T11:49:03.757Z,12.95
2023-01-19T11:51:42.819Z,17.98
2023-01-19T11:54:23.552Z,21.73
2023-01-19T11:56:59.851Z,17.23
2023-01-19T11:59:32.615Z,18.85
2023-01-19T12:02:18.468Z,15.18
2023-01-19T12:04:55.381Z,18.20
2023-01-19T12:07:31.558Z,13.45
2023-01-19T12:10:18.807Z,13.63
2023-01-19T12:12:53.264Z,15.80
2023-01-19T12:15:33.231Z,16.92
2023-01-19T12:18:11.623Z,19.02
2023-01-19T12:20:48.414Z,10.80
2023-01-19T12:23:38.375Z,17.35
2023-01-19T12:26:28.067Z,17.85
2023-01-19T12:29:05.276Z,27.35
2023-01-19T12:31:40.476Z,14.02
2023-01-19T12:34:41.581Z,14.38
2023-01-19T12:37:37.258Z,13.48
2023-01-19T12:40:24.454Z,15.68
2023-01-19T12:43:01.716Z,18.67
2023-01-19T12:45:36.519Z,16.15
2023-01-19T12:48:25.283Z,16.58
2023-01-19T12:50:59.475Z,15.00
2023-01-19T12:53:32.456Z,15.40
2023-01-19T12:56:09.954Z,14.23
2023-01-19T12:58:50.017Z,14.27
2023-01-19T13:01:24.745Z,12.68
2023-01-19T13:04:04.238Z,19.17
2023-01-19T13:07:10.407Z,14.85
2023-01-19T13:09:43.509Z,16.88
2023-01-19T13:12:24.625Z,15.68
2023-01-19T13:15:25.949Z,14.27
2023-01-19T13:17:59.004Z,14.88
2023-01-19T13:20:44.573Z,15.02
2023-01-19T13:26:04.888Z,15.05
2023-01-19T13:28:42.500Z,13.05
2023-01-19T13:31:16.418Z,11.73
2023-01-19T13:33:53.040Z,18.05
2023-01-19T13:36:30.796Z,17.30
2023-01-19T13:39:07.509Z,15.32
2023-01-19T13:41:41.902Z,11.02
2023-01-19T13:44:20.007Z,20.65
2023-01-19T13:46:54.837Z,15.80
2023-01-19T13:49:31.254Z,10.45
2023-01-19T13:52:08.735Z,16.10
2023-01-19T13:54:50.779Z,13.52
2023-01-19T13:57:25.898Z,14.35
2023-01-19T14:02:54.304Z,15.13
2023-01-19T14:05:32.864Z,17.30
2023-01-19T14:08:12.795Z,13.75
2023-01-19T14:10:51.076Z,16.75
2023-01-19T14:13:26.162Z,15.73
2023-01-19T14:18:33.909Z,17.30
2023-01-19T14:21:08.703Z,19.85
2023-01-19T14:23:47.991Z,18.38
2023-01-19T14:26:43.076Z,11.77
2023-01-19T14:29:27.966Z,14.23
2023-01-19T14:32:13.561Z,15.38
2023-01-19T14:34:48.509Z,15.10
2023-01-19T14:37:27.337Z,17.13
2023-01-19T14:40:04.633Z,15.40
2023-01-19T14:42:46.546Z,14.73
2023-01-19T14:45:21.452Z,14.15
2023-01-19T14:47:57.722Z,20.85
2023-01-19T14:50:33.865Z,17.70
2023-01-19T14:53:09.187Z,15.35
2023-01-19T14:55:47.578Z,17.08
2023-01-19T14:58:23.208Z,18.65
2023-01-19T15:00:56.398Z,20.88
2023-01-19T15:03:43.640Z,16.85
2023-01-19T15:06:19.673Z,13.40
2023-01-19T15:08:53.384Z,16.45
2023-01-19T15:11:30.445Z,18.60
2023-01-19T15:14:04.756Z,18.95
2023-01-19T15:16:37.587Z,15.45
2023-01-19T15:19:12.854Z,12.43
2023-01-19T15:21:46.807Z,16.45
2023-01-19T15:24:19.734Z,14.55
2023-01-19T15:26:52.504Z,14.48
2023-01-19T15:29:29.213Z,17.60
2023-01-19T15:32:03.823Z,16.52
2023-01-19T15:34:36.605Z,14.60
2023-01-19T15:37:09.399Z,12.52
2023-01-19T15:39:42.245Z,14.60
2023-01-19T15:42:16.142Z,12.75
2023-01-19T15:44:50.195Z,12.77
2023-01-19T15:47:22.983Z,15.77
2023-01-19T15:49:55.831Z,16.95
2023-01-19T15:52:28.729Z,16.60
2023-01-19T15:55:01.647Z,13.32
2023-01-19T15:57:35.426Z,14.00
2023-01-19T16:00:11.549Z,14.23
2023-01-19T16:02:45.175Z,11.48
2023-01-19T16:05:18.253Z,15.55
2023-01-19T16:07:51.145Z,15.32
2023-01-19T16:10:24.299Z,13.85
2023-01-19T16:12:57.100Z,15.25
2023-01-19T16:15:31.501Z,12.57
2023-01-19T16:18:05.188Z,13.45
2023-01-19T16:20:40.614Z,13.98
2023-01-19T16:23:15.235Z,11.05
2023-01-19T16:28:28.988Z,13.45
2023-01-19T16:31:03.662Z,13.60
2023-01-19T16:33:36.451Z,15.50
2023-01-19T16:36:20.833Z,13.40
2023-01-19T16:38:54.553Z,11.70
2023-01-19T16:41:28.201Z,12.52
2023-01-19T16:44:01.452Z,14.40
2023-01-19T16:46:37.783Z,13.05
2023-01-19T16:49:14.738Z,12.07
2023-01-19T16:51:48.812Z,15.27
2023-01-19T16:54:23.428Z,13.98
2023-01-19T16:56:58.269Z,16.30
2023-01-19T16:59:31.063Z,11.60
2023-01-19T17:02:05.442Z,15.20
2023-01-19T17:04:38.520Z,14.38
2023-01-19T17:07:11.303Z,14.88
2023-01-19T17:09:44.608Z,13.07
2023-01-19T17:12:17.429Z,16.35
2023-01-19T17:14:50.630Z,16.08
2023-01-19T17:17:24.764Z,14.20
2023-01-19T17:19:57.582Z,16.23
2023-01-19T17:22:30.400Z,17.45
2023-01-19T17:25:03.535Z,13.82
2023-01-19T17:27:36.546Z,13.52
2023-01-19T17:30:11.114Z,13.82
2023-01-19T17:32:45.490Z,12.82
2023-01-19T17:35:18.531Z,13.50
2023-01-19T17:37:53.908Z,13.07
2023-01-19T17:40:26.940Z,15.23
2023-01-19T17:42:59.730Z,12.65
2023-01-19T17:45:32.879Z,17.02
2023-01-19T17:48:08.260Z,11.95
2023-01-19T17:50:41.082Z,13.90
2023-01-19T17:53:14.301Z,14.25
2023-01-19T17:55:47.533Z,14.35
2023-01-19T17:58:20.319Z,12.88
2023-01-19T18:00:53.111Z,16.95
2023-01-19T18:03:27.355Z,11.55
2023-01-19T18:06:00.217Z,11.00
2023-01-19T18:08:34.575Z,13.45
2023-01-19T18:11:08.382Z,13.40
2023-01-19T18:13:43.642Z,12.60
2023-01-19T18:16:18.655Z,14.05
2023-01-19T18:21:30.599Z,10.95
2023-01-19T18:24:05.463Z,16.42
2023-01-19T18:26:38.847Z,17.55
2023-01-19T18:29:11.843Z,10.52
2023-01-19T18:31:44.930Z,19.13
2023-01-19T18:34:19.169Z,16.13
2023-01-19T18:36:52.215Z,20.25
2023-01-19T18:39:25.020Z,15.23
2023-01-19T18:41:57.817Z,16.48
2023-01-19T18:44:30.902Z,15.48
2023-01-19T18:47:03.683Z,15.05
2023-01-19T18:49:37.812Z,15.15
2023-01-19T18:52:10.693Z,9.57
2023-01-19T18:54:43.514Z,16.75
2023-01-19T18:57:17.772Z,15.25
2023-01-19T18:59:50.611Z,14.00
2023-01-19T19:02:24.199Z,17.35
2023-01-19T19:04:58.449Z,19.15
2023-01-19T19:07:31.405Z,15.10
2023-01-19T19:10:05.017Z,14.48
2023-01-19T19:12:37.813Z,16.58
2023-01-19T19:15:11.592Z,14.35
2023-01-19T19:17:44.380Z,12.32
2023-01-19T19:20:19.466Z,16.95
2023-01-19T19:22:52.317Z,16.10
2023-01-19T19:25:25.205Z,18.20
2023-01-19T19:27:57.969Z,17.77
2023-01-19T19:30:32.419Z,16.60
2023-01-19T19:33:05.463Z,16.48
2023-01-19T19:35:39.588Z,17.83
2023-01-19T19:38:12.372Z,15.93
2023-01-19T19:40:45.490Z,16.65
2023-01-19T19:43:19.169Z,15.52
2023-01-19T19:45:59.914Z,19.30
2023-01-19T19:48:33.114Z,16.42
2023-01-19T19:51:17.599Z,17.23
2023-01-19T19:53:52.397Z,20.58
2023-01-19T19:56:27.828Z,16.73
2023-01-19T19:59:01.955Z,17.88
2023-01-19T20:01:34.921Z,19.13
2023-01-19T20:04:10.546Z,17.92
2023-01-19T20:06:45.005Z,20.33
2023-01-19T20:09:18.276Z,19.73
2023-01-19T20:11:52.168Z,18.85
2023-01-19T20:14:25.216Z,15.50
2023-01-19T20:16:57.942Z,17.70
2023-01-19T20:19:32.562Z,18.98
2023-01-19T20:22:07.962Z,17.77
2023-01-19T20:24:40.738Z,17.98
2023-01-19T20:27:13.599Z,20.55
2023-01-19T20:29:51.431Z,18.17
2023-01-19T20:32:24.585Z,18.38
2023-01-19T20:34:57.451Z,19.42
2023-01-19T20:37:31.584Z,20.90
2023-01-19T20:40:05.215Z,22.60
2023-01-19T20:42:41.146Z,20.10
2023-01-19T20:45:14.272Z,19.27
2023-01-19T20:47:47.164Z,20.23
2023-01-19T20:50:20.052Z,16.42
2023-01-19T20:52:54.601Z,18.98
2023-01-19T20:55:27.959Z,17.17
2023-01-19T20:58:00.799Z,16.23
2023-01-19T21:00:34.527Z,19.48
2023-01-19T21:03:07.312Z,17.08
2023-01-19T21:05:40.081Z,18.88
2023-01-19T21:08:14.819Z,18.70
2023-01-19T21:10:47.553Z,15.70
2023-01-19T21:13:20.331Z,17.35
2023-01-19T21:15:53.239Z,15.82
2023-01-19T21:18:27.775Z,17.98
2023-01-19T21:21:00.773Z,18.98
2023-01-19T21:23:35.199Z,18.33
2023-01-19T21:26:08.042Z,20.20
2023-01-19T21:28:41.243Z,15.13
2023-01-19T21:31:15.163Z,17.30
2023-01-19T21:33:49.078Z,19.30
2023-01-19T21:36:24.968Z,19.80
2023-01-19T21:39:01.249Z,18.42
2023-01-19T21:41:35.668Z,20.92
2023-01-19T21:44:08.812Z,17.70
2023-01-19T21:46:41.648Z,18.55
2023-01-19T21:49:18.011Z,18.77
2023-01-19T21:51:51.123Z,21.50
2023-01-19T21:54:25.274Z,18.23
2023-01-19T21:56:58.086Z,18.27
2023-01-19T21:59:30.883Z,19.05
2023-01-19T22:02:03.835Z,19.85
2023-01-19T22:04:36.688Z,18.98
2023-01-19T22:07:09.459Z,20.08
2023-01-19T22:09:43.674Z,17.50
2023-01-19T22:12:16.716Z,19.90
2023-01-19T22:14:49.450Z,18.67
2023-01-19T22:17:22.451Z,18.15
2023-01-19T22:19:55.172Z,19.10
2023-01-19T22:22:28.193Z,20.77
2023-01-19T22:25:02.291Z,14.95
2023-01-19T22:27:35.017Z,18.40
2023-01-19T22:30:09.206Z,20.35
2023-01-19T22:32:42.069Z,17.20
2023-01-19T22:35:15.397Z,19.30
2023-01-19T22:37:48.237Z,18.00
2023-01-19T22:40:22.429Z,16.92
2023-01-19T22:42:55.152Z,17.60
2023-01-19T22:45:27.920Z,16.75
2023-01-19T22:48:00.675Z,18.65
2023-01-19T22:50:33.426Z,20.35
2023-01-19T22:53:06.489Z,20.55
2023-01-19T22:55:40.634Z,20.38
2023-01-19T22:58:13.500Z,19.98
2023-01-19T23:00:46.332Z,18.20
2023-01-19T23:03:19.066Z,14.32
2023-01-19T23:05:51.874Z,19.55
2023-01-19T23:08:24.659Z,18.80
2023-01-19T23:10:58.919Z,21.67
2023-01-19T23:13:31.920Z,19.25
2023-01-19T23:16:05.929Z,22.70
2023-01-19T23:18:39.112Z,21.10
2023-01-19T23:21:14.294Z,20.95
2023-01-19T23:23:47.076Z,21.52
2023-01-19T23:26:22.098Z,19.80
2023-01-19T23:31:31.046Z,22.00
2023-01-19T23:36:40.201Z,20.27
2023-01-19T23:39:16.179Z,21.73
2023-01-19T23:41:50.970Z,19.23
2023-01-19T23:46:57.903Z,21.05
2023-01-19T23:49:30.941Z,14.45
2023-01-19T23:52:05.626Z,23.13
2023-01-19T23:54:38.478Z,21.60
2023-01-19T23:57:12.624Z,25.38
2023-01-19T23:59:45.463Z,21.33
